Time;durP1;ratioP1;P1;durP2;ratioP2;P2;SDS_P1;SDS_P2;PMS_P1;PMS_P2;Temp;Humidity;BMP_temperature;BMP_pressure;BME280_temperature;BME280_humidity;BME280_pressure;Samples;Min_cycle;Max_cycle;Signal;HPM_P1;HPM_P2
2023/09/21 00:00:12;;;;;;;2.50;2.40;;;17.40;99.90;;;;;;4993684;28;20258;-57
2023/09/21 00:02:40;;;;;;;2.50;2.40;;;17.40;99.90;;;;;;4992863;28;20746;-57
2023/09/21 00:05:08;;;;;;;2.03;1.93;;;17.20;99.90;;;;;;4993575;28;20707;-57
2023/09/21 00:07:36;;;;;;;2.70;2.60;;;17.10;99.90;;;;;;4993306;28;20218;-57
2023/09/21 00:10:06;;;;;;;2.40;2.20;;;17.10;99.90;;;;;;4993605;28;20220;-57
2023/09/21 00:12:34;;;;;;;2.67;2.47;;;17.00;99.90;;;;;;4993814;28;20208;-57
2023/09/21 00:15:12;;;;;;;2.70;2.37;;;17.00;99.90;;;;;;4992557;28;20220;-57
2023/09/21 00:17:40;;;;;;;2.80;2.60;;;17.00;99.90;;;;;;4992866;28;20623;-57
2023/09/21 00:20:12;;;;;;;3.37;3.10;;;17.00;99.90;;;;;;4993269;28;20623;-57
2023/09/21 00:22:40;;;;;;;2.97;2.77;;;17.00;99.90;;;;;;4993532;28;20689;-57
2023/09/21 00:25:09;;;;;;;2.27;2.17;;;17.00;99.90;;;;;;4993256;28;20222;-57
2023/09/21 00:27:36;;;;;;;2.33;2.23;;;16.90;99.90;;;;;;4992633;28;20627;-57
2023/09/21 00:30:05;;;;;;;3.13;2.90;;;16.90;99.90;;;;;;4992414;28;20219;-57
2023/09/21 00:32:32;;;;;;;2.67;2.57;;;16.80;99.90;;;;;;4993278;28;20214;-57
2023/09/21 00:34:59;;;;;;;2.97;2.87;;;16.80;99.90;;;;;;4992951;28;20270;-57
2023/09/21 00:37:27;;;;;;;3.00;2.90;;;16.70;99.90;;;;;;4995660;28;20249;-57
2023/09/21 00:39:54;;;;;;;2.40;2.30;;;16.70;99.90;;;;;;4994013;28;20555;-57
2023/09/21 00:42:23;;;;;;;4.07;3.17;;;16.70;99.90;;;;;;4993008;28;20281;-57
2023/09/21 00:44:52;;;;;;;3.67;3.37;;;16.70;99.90;;;;;;4991902;28;20268;-57
2023/09/21 00:47:19;;;;;;;3.37;3.17;;;16.70;99.90;;;;;;4992646;28;20254;-57
2023/09/21 00:49:47;;;;;;;2.47;2.47;;;16.70;99.90;;;;;;4993038;28;20253;-57
2023/09/21 00:52:14;;;;;;;2.80;2.70;;;16.70;99.90;;;;;;4992350;28;20683;-57
2023/09/21 00:54:42;;;;;;;3.00;2.83;;;16.70;99.90;;;;;;4992728;28;20228;-57
2023/09/21 00:57:12;;;;;;;4.40;2.93;;;16.70;99.90;;;;;;4992391;28;20642;-56
2023/09/21 00:59:45;;;;;;;3.23;3.03;;;16.70;99.90;;;;;;4990770;28;20203;-57
2023/09/21 01:02:12;;;;;;;2.97;2.87;;;16.70;99.90;;;;;;4992902;28;20223;-57
2023/09/21 01:04:40;;;;;;;2.67;2.50;;;16.70;99.90;;;;;;4991570;28;20266;-57
2023/09/21 01:07:20;;;;;;;2.77;2.63;;;16.70;99.90;;;;;;4992394;28;20200;-57
2023/09/21 01:09:49;;;;;;;2.77;2.67;;;16.70;99.90;;;;;;4991460;28;20259;-57
2023/09/21 01:12:16;;;;;;;2.47;2.37;;;16.70;99.90;;;;;;4991941;28;20204;-57
2023/09/21 01:14:45;;;;;;;3.23;3.07;;;16.70;99.90;;;;;;4992259;28;20306;-57
2023/09/21 01:17:13;;;;;;;2.67;2.57;;;16.70;99.90;;;;;;4992069;28;20208;-57
2023/09/21 01:19:40;;;;;;;3.20;2.90;;;16.70;99.90;;;;;;4992319;28;20204;-57
2023/09/21 01:22:11;;;;;;;2.50;2.33;;;16.70;99.90;;;;;;4992914;28;20207;-57
2023/09/21 01:24:40;;;;;;;2.63;2.50;;;16.70;99.90;;;;;;4992265;28;20777;-56
2023/09/21 01:27:08;;;;;;;3.57;3.33;;;16.70;99.90;;;;;;4991706;28;20196;-57
2023/09/21 01:29:35;;;;;;;2.70;2.50;;;16.70;99.90;;;;;;4992345;28;20306;-57
2023/09/21 01:32:02;;;;;;;3.40;3.10;;;16.70;99.90;;;;;;4992708;28;20568;-57
2023/09/21 01:34:30;;;;;;;3.00;2.90;;;16.70;99.90;;;;;;4992567;28;20287;-57
2023/09/21 01:36:57;;;;;;;2.93;2.83;;;16.70;99.90;;;;;;4992003;28;21497;-57
2023/09/21 01:39:26;;;;;;;3.50;3.30;;;16.70;99.90;;;;;;4996410;28;20675;-57
2023/09/21 01:41:55;;;;;;;3.07;2.87;;;16.70;99.90;;;;;;4991573;28;20204;-57
2023/09/21 01:44:25;;;;;;;3.60;3.40;;;16.70;99.90;;;;;;4992411;28;20266;-57
2023/09/21 01:46:52;;;;;;;3.27;3.07;;;16.70;99.90;;;;;;4992033;28;20215;-57
2023/09/21 01:49:20;;;;;;;4.30;4.00;;;16.70;99.90;;;;;;4992209;28;20258;-56
2023/09/21 01:51:49;;;;;;;3.50;3.20;;;16.70;99.90;;;;;;4991591;28;20754;-57
2023/09/21 01:54:15;;;;;;;3.50;3.27;;;16.80;99.90;;;;;;4992244;28;20283;-57
2023/09/21 01:56:43;;;;;;;4.57;4.30;;;16.80;99.90;;;;;;4991905;28;20207;-57
2023/09/21 01:59:11;;;;;;;3.60;3.30;;;16.80;99.90;;;;;;4992213;28;20204;-57
2023/09/21 02:01:39;;;;;;;3.53;3.33;;;16.80;99.90;;;;;;4992210;28;20204;-57
2023/09/21 02:04:07;;;;;;;3.87;3.70;;;16.80;99.90;;;;;;4991380;28;20210;-57
2023/09/21 02:06:34;;;;;;;3.30;3.10;;;16.80;99.90;;;;;;4990935;28;20321;-57
2023/09/21 02:09:04;;;;;;;4.03;3.73;;;16.80;99.90;;;;;;4992021;28;20196;-57
2023/09/21 02:11:31;;;;;;;6.10;3.40;;;16.70;99.90;;;;;;4992396;28;20278;-57
2023/09/21 02:13:58;;;;;;;3.33;3.10;;;16.70;99.90;;;;;;4992212;28;20211;-57
2023/09/21 02:16:27;;;;;;;3.27;3.07;;;16.70;99.90;;;;;;4991426;28;20231;-57
2023/09/21 02:18:54;;;;;;;3.83;3.40;;;16.70;99.90;;;;;;4989701;28;20203;-57
2023/09/21 02:21:21;;;;;;;3.33;3.23;;;16.60;99.90;;;;;;4992093;28;20223;-57
2023/09/21 02:23:48;;;;;;;3.97;3.67;;;16.60;99.90;;;;;;4991835;28;20262;-57
2023/09/21 02:26:15;;;;;;;2.90;2.77;;;16.50;99.90;;;;;;4991600;28;20359;-57
2023/09/21 02:28:42;;;;;;;4.53;4.13;;;16.50;99.90;;;;;;4991867;28;20719;-57
2023/09/21 02:31:11;;;;;;;3.60;3.47;;;16.50;99.90;;;;;;4991748;28;20270;-57
2023/09/21 02:33:42;;;;;;;3.40;2.90;;;16.50;99.90;;;;;;4990607;28;20200;-57
2023/09/21 02:36:14;;;;;;;3.60;3.30;;;16.50;99.90;;;;;;4991514;28;20718;-57
2023/09/21 02:38:41;;;;;;;4.07;3.87;;;16.50;99.90;;;;;;4998937;28;20648;-57
2023/09/21 02:41:09;;;;;;;4.10;3.90;;;16.50;99.90;;;;;;4995852;28;20224;-57
2023/09/21 02:43:36;;;;;;;3.77;3.47;;;16.50;99.90;;;;;;4995630;28;20203;-57
2023/09/21 02:46:03;;;;;;;4.57;4.20;;;16.50;99.90;;;;;;4995172;28;20673;-57
2023/09/21 02:48:30;;;;;;;4.80;3.07;;;16.50;99.90;;;;;;4993041;28;20208;-57
2023/09/21 02:50:59;;;;;;;4.23;4.03;;;16.50;99.90;;;;;;4993860;28;20227;-57
2023/09/21 02:53:27;;;;;;;3.57;3.43;;;16.50;99.90;;;;;;4995577;28;20262;-57
2023/09/21 02:55:54;;;;;;;3.97;3.77;;;16.50;99.90;;;;;;4994975;28;20227;-57
2023/09/21 02:58:21;;;;;;;6.13;4.17;;;16.50;99.90;;;;;;4995372;28;20199;-57
2023/09/21 03:00:49;;;;;;;4.13;3.87;;;16.50;99.90;;;;;;4995293;28;20688;-57
2023/09/21 03:03:17;;;;;;;3.60;3.50;;;16.40;99.90;;;;;;4994708;28;20212;-57
2023/09/21 03:05:46;;;;;;;3.40;3.30;;;16.40;99.90;;;;;;4992158;28;20242;-57
2023/09/21 03:08:15;;;;;;;4.60;4.30;;;16.40;99.90;;;;;;4995262;28;20227;-57
2023/09/21 03:10:43;;;;;;;4.50;4.20;;;16.40;99.90;;;;;;4994190;28;20270;-56
2023/09/21 03:13:17;;;;;;;4.03;3.83;;;16.40;99.90;;;;;;4995167;28;20286;-57
2023/09/21 03:15:44;;;;;;;3.30;3.20;;;16.40;99.90;;;;;;4990830;28;20731;-57
2023/09/21 03:18:12;;;;;;;5.23;3.33;;;16.40;99.90;;;;;;4994948;28;20266;-57
2023/09/21 03:20:39;;;;;;;3.90;3.67;;;16.40;99.90;;;;;;4995079;28;20246;-57
2023/09/21 03:23:09;;;;;;;4.53;4.23;;;16.40;99.90;;;;;;4987146;28;20200;-57
2023/09/21 03:25:41;;;;;;;4.40;4.00;;;16.40;99.90;;;;;;4994653;28;20294;-57
2023/09/21 03:28:10;;;;;;;4.30;4.00;;;16.50;99.90;;;;;;4995170;28;20295;-57
2023/09/21 03:30:38;;;;;;;5.03;4.77;;;16.50;99.90;;;;;;4993198;28;20224;-57
2023/09/21 03:33:06;;;;;;;4.73;4.43;;;16.50;99.90;;;;;;4994751;28;20203;-57
2023/09/21 03:35:33;;;;;;;4.20;3.97;;;16.50;99.90;;;;;;5002526;28;20227;-57
2023/09/21 03:38:00;;;;;;;4.17;3.97;;;16.50;99.90;;;;;;5011496;28;20253;-57
2023/09/21 03:40:30;;;;;;;4.10;3.83;;;16.40;99.90;;;;;;4993374;28;20200;-57
2023/09/21 03:42:59;;;;;;;4.97;4.67;;;16.40;99.90;;;;;;4994570;28;20206;-57
2023/09/21 03:45:27;;;;;;;6.33;5.73;;;16.40;99.90;;;;;;4996498;28;20711;-57
2023/09/21 03:47:54;;;;;;;3.90;3.70;;;16.40;99.90;;;;;;4993677;28;20215;-57
2023/09/21 03:50:27;;;;;;;4.70;4.50;;;16.30;99.90;;;;;;4994180;28;20212;-57
2023/09/21 03:52:54;;;;;;;4.93;4.73;;;16.30;99.90;;;;;;4993636;28;20215;-57
2023/09/21 03:55:21;;;;;;;5.13;4.87;;;16.30;99.90;;;;;;4994318;28;20219;-57
2023/09/21 03:57:48;;;;;;;5.80;5.40;;;16.40;99.90;;;;;;4994625;28;20204;-57
2023/09/21 04:00:36;;;;;;;4.50;4.20;;;16.30;99.90;;;;;;4994319;28;20200;-57
2023/09/21 04:03:06;;;;;;;5.23;4.83;;;16.30;99.90;;;;;;4994221;28;20204;-57
2023/09/21 04:05:35;;;;;;;4.77;4.50;;;16.30;99.90;;;;;;4994030;28;20228;-57
2023/09/21 04:08:03;;;;;;;4.97;4.77;;;16.40;99.90;;;;;;4994284;28;20291;-56
2023/09/21 04:10:30;;;;;;;4.17;3.93;;;16.40;99.90;;;;;;4993232;28;20223;-57
2023/09/21 04:12:58;;;;;;;4.43;4.10;;;16.40;99.90;;;;;;4993870;28;20671;-57
2023/09/21 04:15:29;;;;;;;4.63;4.43;;;16.40;99.90;;;;;;4993477;28;20250;-57
2023/09/21 04:17:59;;;;;;;7.63;5.07;;;16.40;99.90;;;;;;4994200;28;20207;-57
2023/09/21 04:20:25;;;;;;;5.27;4.77;;;16.40;99.90;;;;;;4994122;28;20273;-57
2023/09/21 04:22:56;;;;;;;3.70;3.40;;;16.50;99.90;;;;;;4994001;28;20204;-57
2023/09/21 04:25:23;;;;;;;5.17;4.67;;;16.40;99.90;;;;;;4993863;28;20247;-57
2023/09/21 04:27:53;;;;;;;4.90;4.60;;;16.40;99.90;;;;;;4992407;28;20203;-57
2023/09/21 04:30:22;;;;;;;5.17;4.87;;;16.40;99.90;;;;;;4993552;28;20729;-57
2023/09/21 04:32:51;;;;;;;4.47;4.27;;;16.40;99.90;;;;;;4993573;28;20210;-57
2023/09/21 04:35:19;;;;;;;4.27;4.07;;;16.40;99.90;;;;;;4998550;28;20270;-57
2023/09/21 04:37:48;;;;;;;4.63;4.23;;;16.40;99.90;;;;;;4993330;28;20199;-57
2023/09/21 04:40:16;;;;;;;4.33;4.13;;;16.40;99.90;;;;;;4993556;28;20204;-57
2023/09/21 04:42:46;;;;;;;4.47;4.07;;;16.40;99.90;;;;;;4992925;28;20200;-58
2023/09/21 04:45:14;;;;;;;4.40;4.20;;;16.50;99.90;;;;;;4993503;28;20306;-57
2023/09/21 04:47:42;;;;;;;4.97;4.47;;;16.50;99.90;;;;;;4992951;28;20699;-57
2023/09/21 04:50:12;;;;;;;5.80;5.17;;;16.50;99.90;;;;;;4993074;28;20224;-57
2023/09/21 04:52:40;;;;;;;4.93;4.57;;;16.60;99.90;;;;;;4992237;28;20630;-57
2023/09/21 04:55:08;;;;;;;4.50;4.30;;;16.60;99.90;;;;;;4993186;28;20321;-57
2023/09/21 04:57:35;;;;;;;5.37;4.93;;;16.60;99.90;;;;;;4993079;28;20315;-57
2023/09/21 05:00:07;;;;;;;4.70;4.17;;;16.60;99.90;;;;;;4991786;28;20195;-57
2023/09/21 05:02:34;;;;;;;5.17;4.40;;;16.50;99.90;;;;;;4993273;28;20258;-57
2023/09/21 05:05:01;;;;;;;5.17;4.97;;;16.50;99.90;;;;;;4992940;28;20239;-57
2023/09/21 05:07:29;;;;;;;4.13;3.93;;;16.50;99.90;;;;;;4992447;28;20254;-57
2023/09/21 05:09:57;;;;;;;5.00;4.60;;;16.40;99.90;;;;;;4993003;28;20204;-57
2023/09/21 05:12:27;;;;;;;4.17;3.77;;;16.40;99.90;;;;;;4993055;28;20208;-58
2023/09/21 05:14:54;;;;;;;3.97;3.67;;;16.40;99.90;;;;;;4992095;28;20319;-57
2023/09/21 05:17:21;;;;;;;5.07;4.67;;;16.30;99.90;;;;;;4989251;28;20255;-57
2023/09/21 05:19:49;;;;;;;4.73;4.43;;;16.30;99.90;;;;;;4991514;28;20562;-57
2023/09/21 05:22:16;;;;;;;5.63;5.20;;;16.30;99.90;;;;;;4992718;28;20196;-57
2023/09/21 05:24:44;;;;;;;4.37;4.07;;;16.40;99.90;;;;;;4991907;28;20599;-58
2023/09/21 05:27:11;;;;;;;3.63;3.43;;;16.40;99.90;;;;;;4990822;28;20655;-57
2023/09/21 05:29:40;;;;;;;3.23;3.03;;;16.40;99.90;;;;;;4992640;28;20262;-57
2023/09/21 05:32:07;;;;;;;4.30;3.93;;;16.40;99.90;;;;;;4984674;28;20223;-57
2023/09/21 05:34:34;;;;;;;3.03;2.87;;;16.40;99.90;;;;;;4997175;28;20242;-57
2023/09/21 05:37:01;;;;;;;4.03;3.83;;;16.40;99.90;;;;;;4992058;28;20207;-57
2023/09/21 05:39:28;;;;;;;3.90;3.50;;;16.50;99.90;;;;;;4992164;28;20239;-57
2023/09/21 05:41:58;;;;;;;3.70;3.40;;;16.50;99.90;;;;;;4992069;28;20259;-57
2023/09/21 05:44:28;;;;;;;3.50;2.97;;;16.60;99.90;;;;;;4991356;28;20568;-57
2023/09/21 05:46:55;;;;;;;4.07;3.80;;;16.60;99.90;;;;;;4991365;28;20259;-57
2023/09/21 05:49:27;;;;;;;4.53;3.27;;;16.70;99.90;;;;;;4992386;28;20200;-57
2023/09/21 05:51:56;;;;;;;3.67;3.37;;;16.70;99.90;;;;;;4992109;28;20235;-57
2023/09/21 05:54:28;;;;;;;3.87;3.20;;;16.70;99.90;;;;;;4992350;28;20227;-57
2023/09/21 05:56:56;;;;;;;3.70;3.33;;;16.80;99.90;;;;;;4990508;28;22028;-57
2023/09/21 05:59:25;;;;;;;3.43;3.23;;;16.90;99.90;;;;;;4990703;28;20266;-58
2023/09/21 06:01:52;;;;;;;3.67;3.37;;;17.00;99.90;;;;;;4990772;28;20579;-57
2023/09/21 06:04:21;;;;;;;3.70;3.50;;;17.00;99.90;;;;;;4992096;28;20254;-57
2023/09/21 06:06:48;;;;;;;3.50;3.30;;;17.10;99.90;;;;;;4991427;28;20208;-57
2023/09/21 06:09:19;;;;;;;3.40;3.20;;;17.20;99.90;;;;;;4994825;28;20670;-57
2023/09/21 06:11:46;;;;;;;3.70;3.50;;;17.20;99.90;;;;;;4992117;28;20812;-57
2023/09/21 06:14:15;;;;;;;3.33;3.13;;;17.30;99.90;;;;;;4991082;28;20278;-58
2023/09/21 06:16:42;;;;;;;5.27;3.70;;;17.40;99.90;;;;;;4989370;28;20643;-58
2023/09/21 06:19:11;;;;;;;5.37;4.03;;;17.50;99.90;;;;;;4984297;28;20279;-57
2023/09/21 06:21:39;;;;;;;5.10;4.00;;;17.60;99.90;;;;;;5016107;23;20736;-53
2023/09/21 06:24:07;;;;;;;4.90;4.27;;;17.80;99.90;;;;;;5004641;28;20209;-53
2023/09/21 06:26:34;;;;;;;5.03;3.00;;;18.00;99.90;;;;;;5010397;28;20208;-53
2023/09/21 06:29:02;;;;;;;2.03;1.50;;;18.30;99.90;;;;;;5005991;28;20658;-53
2023/09/21 06:31:31;;;;;;;1.33;1.30;;;18.60;99.90;;;;;;5008863;28;20231;-53
2023/09/21 06:33:59;;;;;;;1.93;1.83;;;18.80;99.90;;;;;;5006242;28;20207;-53
2023/09/21 06:36:28;;;;;;;2.63;2.10;;;18.90;99.90;;;;;;5011379;28;20199;-53
2023/09/21 06:38:55;;;;;;;1.73;1.63;;;19.00;99.90;;;;;;5011526;28;20219;-53
2023/09/21 06:41:23;;;;;;;2.77;2.20;;;19.10;99.90;;;;;;5007420;28;20215;-53
2023/09/21 06:43:51;;;;;;;1.53;1.43;;;19.20;99.90;;;;;;4999111;28;20437;-52
2023/09/21 06:46:18;;;;;;;1.80;1.80;;;19.20;99.90;;;;;;5007833;28;20461;-52
2023/09/21 06:48:48;;;;;;;2.70;2.43;;;19.30;99.90;;;;;;5018796;28;20218;-56
2023/09/21 06:51:15;;;;;;;2.23;2.03;;;19.30;99.90;;;;;;5016558;28;20226;-57
2023/09/21 06:53:43;;;;;;;2.33;1.63;;;19.30;99.90;;;;;;5010809;28;20269;-55
2023/09/21 06:56:11;;;;;;;2.90;2.20;;;19.30;99.90;;;;;;5010622;28;20362;-56
2023/09/21 06:58:38;;;;;;;1.70;1.60;;;19.40;99.90;;;;;;5009046;28;20290;-56
2023/09/21 07:01:05;;;;;;;3.17;1.43;;;19.50;99.90;;;;;;4994374;28;20832;-56
2023/09/21 07:03:33;;;;;;;5.07;2.00;;;19.60;99.90;;;;;;5011060;28;20200;-56
2023/09/21 07:06:01;;;;;;;4.10;1.93;;;19.80;99.90;;;;;;5010307;28;20746;-57
2023/09/21 07:08:28;;;;;;;2.87;2.20;;;19.90;99.90;;;;;;5010750;28;20667;-57
2023/09/21 07:10:55;;;;;;;3.23;2.27;;;20.00;99.90;;;;;;5012455;28;20269;-56
2023/09/21 07:13:23;;;;;;;2.70;2.50;;;20.00;99.90;;;;;;5004907;28;20208;-55
2023/09/21 07:15:51;;;;;;;3.30;2.17;;;20.20;99.90;;;;;;5001533;28;20215;-55
2023/09/21 07:18:20;;;;;;;3.60;3.30;;;20.40;99.90;;;;;;5010499;28;20227;-55
2023/09/21 07:20:47;;;;;;;3.90;2.10;;;20.60;99.90;;;;;;5009490;28;20409;-55
2023/09/21 07:23:16;;;;;;;2.47;2.37;;;20.90;99.90;;;;;;5010520;28;20245;-55
2023/09/21 07:25:43;;;;;;;2.70;2.50;;;21.10;99.90;;;;;;5012602;28;20625;-56
2023/09/21 07:28:10;;;;;;;3.53;2.27;;;21.40;99.90;;;;;;5008424;28;20270;-55
2023/09/21 07:30:38;;;;;;;4.50;2.53;;;21.50;99.90;;;;;;5002396;28;20207;-56
2023/09/21 07:33:08;;;;;;;5.10;3.07;;;21.60;99.90;;;;;;4994415;28;20235;-55
2023/09/21 07:35:36;;;;;;;3.07;2.87;;;21.80;99.90;;;;;;5008884;28;20230;-55
2023/09/21 07:38:03;;;;;;;3.70;3.40;;;21.90;99.90;;;;;;5013766;28;20207;-54
2023/09/21 07:40:31;;;;;;;4.00;3.80;;;21.80;99.90;;;;;;5013103;28;20253;-52
2023/09/21 07:42:58;;;;;;;3.90;3.23;;;22.00;99.90;;;;;;5011412;28;20289;-52
2023/09/21 07:45:26;;;;;;;3.80;3.53;;;22.50;99.90;;;;;;5012652;28;20200;-52
2023/09/21 07:47:54;;;;;;;5.90;4.10;;;22.80;99.90;;;;;;5015635;28;20206;-52
2023/09/21 07:50:23;;;;;;;3.50;3.40;;;23.00;99.90;;;;;;5014242;28;20207;-52
2023/09/21 07:52:53;;;;;;;3.77;3.47;;;23.10;99.90;;;;;;5012599;28;20578;-52
2023/09/21 07:55:20;;;;;;;3.43;2.97;;;23.40;99.90;;;;;;5020607;28;20276;-52
2023/09/21 07:57:48;;;;;;;5.63;4.37;;;23.50;99.90;;;;;;5020055;28;20231;-53
2023/09/21 08:00:16;;;;;;;3.10;2.83;;;23.50;99.90;;;;;;5018245;28;20246;-53
2023/09/21 08:02:43;;;;;;;4.60;4.20;;;23.80;99.90;;;;;;5011540;28;20215;-52
2023/09/21 08:05:10;;;;;;;2.87;2.63;;;23.90;99.90;;;;;;5020673;28;20195;-52
2023/09/21 08:07:38;;;;;;;3.33;2.97;;;23.70;99.90;;;;;;5021336;28;20282;-52
2023/09/21 08:10:06;;;;;;;3.80;3.27;;;23.60;99.90;;;;;;5028488;28;20203;-53
2023/09/21 08:12:36;;;;;;;4.03;3.70;;;23.10;99.90;;;;;;5016777;28;20702;-52
2023/09/21 08:15:06;;;;;;;3.67;3.23;;;22.80;99.90;;;;;;5027761;28;20298;-52
2023/09/21 08:17:36;;;;;;;4.03;3.67;;;22.70;99.90;;;;;;5011529;28;20199;-52
2023/09/21 08:20:04;;;;;;;4.70;4.20;;;22.50;99.90;;;;;;5011436;28;20226;-52
2023/09/21 08:22:31;;;;;;;4.33;3.93;;;22.50;99.90;;;;;;5021196;28;20245;-52
2023/09/21 08:24:58;;;;;;;4.23;4.03;;;22.50;99.90;;;;;;5025528;28;20206;-52
2023/09/21 08:27:28;;;;;;;4.17;3.87;;;22.50;99.90;;;;;;5023344;28;20233;-52
2023/09/21 08:29:57;;;;;;;3.73;3.43;;;22.50;99.90;;;;;;5021654;28;20202;-52
2023/09/21 08:32:26;;;;;;;4.10;3.90;;;22.70;99.90;;;;;;5020160;28;20227;-52
2023/09/21 08:34:53;;;;;;;3.43;3.33;;;22.50;99.90;;;;;;5013023;28;20622;-52
2023/09/21 08:37:20;;;;;;;4.20;3.90;;;22.60;99.90;;;;;;5013072;28;20241;-53
2023/09/21 08:39:47;;;;;;;3.80;3.43;;;22.60;99.90;;;;;;5015137;28;20761;-52
2023/09/21 08:42:14;;;;;;;3.90;3.63;;;22.30;99.90;;;;;;5023124;28;20257;-53
2023/09/21 08:44:43;;;;;;;3.67;3.30;;;22.20;99.90;;;;;;5015350;28;20349;-53
2023/09/21 08:47:14;;;;;;;3.33;2.97;;;22.10;99.90;;;;;;5003848;28;20306;-52
2023/09/21 08:49:45;;;;;;;4.33;3.93;;;22.40;99.90;;;;;;5007276;28;20294;-53
2023/09/21 08:52:13;;;;;;;3.13;2.90;;;23.40;99.90;;;;;;5007458;28;20263;-52
2023/09/21 08:54:42;;;;;;;2.50;2.30;;;24.50;99.90;;;;;;4995148;28;20755;-52
2023/09/21 08:57:10;;;;;;;5.43;5.03;;;25.80;99.90;;;;;;5012041;28;20293;-52
2023/09/21 08:59:41;;;;;;;6.00;4.37;;;26.90;99.90;;;;;;5012406;28;20241;-52
2023/09/21 09:02:11;;;;;;;4.03;3.83;;;27.00;99.90;;;;;;5012235;28;20306;-52
2023/09/21 09:04:39;;;;;;;3.07;2.97;;;27.70;99.90;;;;;;5011687;28;20290;-52
2023/09/21 09:07:07;;;;;;;2.75;2.45;;;28.10;99.90;;;;;;5004109;28;20285;-53
2023/09/21 09:09:35;;;;;;;2.83;2.72;;;28.70;99.90;;;;;;5012305;28;20258;-52
2023/09/21 09:12:02;;;;;;;2.90;2.72;;;29.20;99.90;;;;;;5012022;28;20303;-52
2023/09/21 09:14:31;;;;;;;5.68;5.28;;;29.00;99.90;;;;;;5012107;28;20261;-52
2023/09/21 09:16:58;;;;;;;4.97;4.40;;;29.30;99.90;;;;;;5011590;28;20199;-52
2023/09/21 09:19:29;;;;;;;3.67;3.30;;;29.00;99.90;;;;;;5012252;28;20267;-53
2023/09/21 09:21:57;;;;;;;2.17;2.05;;;28.60;99.90;;;;;;5008918;28;20238;-52
2023/09/21 09:24:30;;;;;;;2.28;2.17;;;28.00;99.90;;;;;;5005683;28;20257;-53
2023/09/21 09:26:57;;;;;;;2.53;2.42;;;27.10;99.90;;;;;;5012591;28;20213;-52
2023/09/21 09:29:27;;;;;;;3.78;3.42;;;26.60;99.90;;;;;;5008595;28;20741;-52
2023/09/21 09:31:54;;;;;;;31.25;26.42;;;26.70;99.90;;;;;;5001330;28;20582;-52
2023/09/21 09:34:22;;;;;;;6.22;5.70;;;27.20;99.90;;;;;;4992111;28;20204;-52
2023/09/21 09:36:50;;;;;;;6.40;5.82;;;27.40;99.90;;;;;;5000237;28;20218;-52
2023/09/21 09:39:18;;;;;;;2.97;2.70;;;28.20;99.90;;;;;;5011769;28;20230;-52
2023/09/21 09:41:49;;;;;;;2.65;2.55;;;28.70;99.90;;;;;;5011650;28;20215;-52
2023/09/21 09:44:21;;;;;;;5.70;5.18;;;29.30;99.90;;;;;;5004186;28;20707;-52
2023/09/21 09:46:49;;;;;;;3.67;3.10;;;29.50;99.90;;;;;;5010949;28;20282;-52
2023/09/21 09:49:20;;;;;;;3.60;3.38;;;30.20;99.90;;;;;;5011478;28;20605;-52
2023/09/21 09:51:47;;;;;;;2.80;2.70;;;30.60;99.90;;;;;;5009235;28;20227;-55
2023/09/21 09:54:16;;;;;;;2.42;2.13;;;30.60;99.90;;;;;;4999837;28;20659;-52
2023/09/21 09:56:43;;;;;;;3.22;2.42;;;30.70;99.90;;;;;;5010893;28;20208;-52
2023/09/21 09:59:12;;;;;;;1.80;1.70;;;30.70;99.90;;;;;;5011540;28;20207;-52
2023/09/21 10:01:41;;;;;;;3.97;3.67;;;30.40;99.90;;;;;;5011450;28;20259;-52
2023/09/21 10:04:09;;;;;;;2.00;1.90;;;30.60;99.90;;;;;;5011542;28;20638;-52
2023/09/21 10:06:36;;;;;;;3.08;2.25;;;30.90;99.90;;;;;;5010996;28;20207;-53
2023/09/21 10:09:10;;;;;;;2.08;1.90;;;31.10;99.90;;;;;;5008045;28;20269;-52
2023/09/21 10:11:42;;;;;;;2.13;2.03;;;30.80;99.90;;;;;;4994540;28;20222;-52
2023/09/21 10:14:13;;;;;;;2.03;1.83;;;30.50;99.90;;;;;;5011418;28;20222;-53
2023/09/21 10:16:49;;;;;;;2.00;1.90;;;30.00;99.90;;;;;;5010885;28;20207;-52
2023/09/21 10:19:26;;;;;;;2.05;1.88;;;29.40;99.90;;;;;;5015319;28;21173;-52
2023/09/21 10:21:57;;;;;;;3.70;2.60;;;29.40;99.90;;;;;;5010509;28;20250;-52
2023/09/21 10:24:30;;;;;;;4.47;1.95;;;29.60;99.90;;;;;;5006515;28;20249;-52
2023/09/21 10:27:01;;;;;;;1.50;1.50;;;29.30;99.90;;;;;;5008907;28;20230;-52
2023/09/21 10:29:33;;;;;;;2.00;1.90;;;29.00;99.90;;;;;;5011260;28;20211;-53
2023/09/21 10:32:03;;;;;;;2.50;1.77;;;29.40;99.90;;;;;;5010462;28;20322;-53
2023/09/21 10:34:31;;;;;;;2.15;1.65;;;29.00;99.90;;;;;;5011380;28;20289;-53
2023/09/21 10:37:06;;;;;;;2.67;2.20;;;28.50;99.90;;;;;;5010549;28;20210;-53
2023/09/21 10:39:33;;;;;;;1.85;1.75;;;28.50;99.90;;;;;;5015972;28;20230;-53
2023/09/21 10:42:33;;;;;;;1.95;1.80;;;28.10;99.90;;;;;;5010090;28;20641;-53
2023/09/21 10:45:04;;;;;;;1.27;1.23;;;27.60;99.90;;;;;;5002683;28;20674;-53
2023/09/21 10:47:35;;;;;;;2.13;2.00;;;27.10;99.90;;;;;;5010518;28;20206;-53
2023/09/21 10:50:04;;;;;;;3.23;2.20;;;26.50;99.90;;;;;;5008311;28;20579;-53
2023/09/21 10:52:32;;;;;;;2.60;2.40;;;26.00;99.90;;;;;;4992896;28;20231;-53
2023/09/21 10:55:00;;;;;;;1.98;1.88;;;26.00;99.90;;;;;;4991350;28;20203;-53
2023/09/21 10:57:29;;;;;;;1.95;1.83;;;26.10;99.90;;;;;;4991171;28;20687;-52
2023/09/21 10:59:59;;;;;;;1.70;1.60;;;26.10;99.90;;;;;;5003427;28;20277;-53
2023/09/21 11:02:31;;;;;;;1.83;1.83;;;26.20;99.90;;;;;;5013615;28;20585;-53
2023/09/21 11:05:00;;;;;;;2.30;1.80;;;26.10;99.90;;;;;;5024329;28;20302;-53
2023/09/21 11:07:29;;;;;;;2.37;2.07;;;25.80;99.90;;;;;;5033887;28;20674;-53
2023/09/21 11:09:56;;;;;;;1.70;1.47;;;25.70;99.90;;;;;;5034306;28;20203;-53
2023/09/21 11:12:23;;;;;;;2.70;2.43;;;25.60;99.90;;;;;;5030049;28;20234;-53
2023/09/21 11:14:50;;;;;;;2.83;2.70;;;25.50;99.90;;;;;;5019476;28;20211;-53
2023/09/21 11:17:18;;;;;;;2.43;2.33;;;25.30;99.90;;;;;;5012922;28;20203;-53
2023/09/21 11:19:47;;;;;;;3.10;2.77;;;25.20;99.90;;;;;;5014055;28;20524;-53
2023/09/21 11:22:15;;;;;;;3.80;3.50;;;25.20;99.90;;;;;;5024681;28;20222;-53
2023/09/21 11:24:42;;;;;;;5.33;4.33;;;25.10;99.90;;;;;;5019558;28;20203;-54
2023/09/21 11:27:10;;;;;;;4.90;3.40;;;25.20;99.90;;;;;;5025105;28;20198;-53
2023/09/21 11:29:42;;;;;;;8.87;8.07;;;24.90;99.90;;;;;;5033200;28;20248;-53
2023/09/21 11:32:10;;;;;;;6.67;5.63;;;25.00;99.90;;;;;;5013995;28;20255;-53
2023/09/21 11:34:39;;;;;;;2.63;2.53;;;24.80;99.90;;;;;;5003185;28;20262;-53
2023/09/21 11:37:10;;;;;;;3.53;3.23;;;24.70;99.90;;;;;;5009542;28;20671;-53
2023/09/21 11:39:38;;;;;;;3.13;3.00;;;24.40;99.90;;;;;;5013863;28;20203;-53
2023/09/21 11:42:08;;;;;;;2.10;2.00;;;24.40;99.90;;;;;;5013698;28;20270;-53
2023/09/21 11:44:37;;;;;;;4.00;2.73;;;24.40;99.90;;;;;;4998979;28;20208;-53
2023/09/21 11:47:09;;;;;;;4.67;4.27;;;24.40;99.90;;;;;;5012126;28;20296;-53
2023/09/21 11:49:41;;;;;;;5.13;4.13;;;24.30;99.90;;;;;;4999435;28;20282;-53
2023/09/21 11:52:10;;;;;;;3.17;2.47;;;24.20;99.90;;;;;;4994104;28;20282;-53
2023/09/21 11:54:39;;;;;;;3.43;2.70;;;24.30;99.90;;;;;;5004976;28;20273;-53
2023/09/21 11:57:09;;;;;;;2.87;2.43;;;24.30;99.90;;;;;;5013103;28;20203;-53
2023/09/21 11:59:39;;;;;;;3.40;3.20;;;24.50;99.90;;;;;;5013751;28;20199;-53
2023/09/21 12:02:09;;;;;;;2.70;2.60;;;24.60;99.90;;;;;;5009913;28;20224;-53
2023/09/21 12:04:41;;;;;;;3.10;2.90;;;24.50;99.90;;;;;;5012470;28;20346;-53
2023/09/21 12:07:10;;;;;;;2.20;2.13;;;24.60;99.90;;;;;;5002243;28;20216;-53
2023/09/21 12:09:37;;;;;;;2.50;2.40;;;24.80;99.90;;;;;;4993323;28;20291;-53
2023/09/21 12:12:06;;;;;;;3.03;2.80;;;24.80;99.90;;;;;;5008232;28;20226;-53
2023/09/21 12:14:34;;;;;;;5.87;2.60;;;24.80;99.90;;;;;;5013183;28;20199;-53
2023/09/21 12:17:09;;;;;;;2.80;2.50;;;24.80;99.90;;;;;;5012938;28;20286;-53
2023/09/21 12:19:37;;;;;;;2.30;2.20;;;24.80;99.90;;;;;;5013118;28;20268;-52
2023/09/21 12:22:05;;;;;;;2.73;2.53;;;24.80;99.90;;;;;;5000916;28;20293;-52
2023/09/21 12:24:34;;;;;;;2.20;2.10;;;24.70;99.90;;;;;;5006406;28;20286;-53
2023/09/21 12:27:03;;;;;;;3.50;1.70;;;24.80;99.90;;;;;;5007378;28;20250;-53
2023/09/21 12:29:30;;;;;;;2.13;1.90;;;24.60;99.90;;;;;;4997758;28;20290;-53
2023/09/21 12:31:58;;;;;;;1.60;1.60;;;24.60;99.90;;;;;;4993235;28;20228;-53
2023/09/21 12:34:27;;;;;;;1.77;1.70;;;24.60;99.90;;;;;;4993377;28;20298;-53
2023/09/21 12:36:54;;;;;;;2.27;1.60;;;24.60;99.90;;;;;;4992933;28;20212;-53
2023/09/21 12:39:24;;;;;;;0.97;0.97;;;24.60;99.90;;;;;;5002272;28;20578;-52
2023/09/21 12:41:52;;;;;;;1.20;1.10;;;24.60;99.90;;;;;;5003682;28;20300;-53
2023/09/21 12:44:19;;;;;;;3.77;1.23;;;24.60;99.90;;;;;;5012626;28;20199;-53
2023/09/21 12:46:46;;;;;;;1.43;1.30;;;24.70;99.90;;;;;;5003962;28;20285;-53
2023/09/21 12:49:14;;;;;;;1.70;1.70;;;24.80;99.90;;;;;;4992779;28;20254;-52
2023/09/21 12:51:43;;;;;;;1.80;1.47;;;24.80;99.90;;;;;;4993076;28;20223;-53
2023/09/21 12:54:10;;;;;;;1.23;1.23;;;24.80;99.90;;;;;;4992743;28;20223;-53